sensor_id;sensor_type;location;lat;lon;timestamp;P1;durP1;ratioP1;P2;durP2;ratioP2
11084;SDS011;5596;46.826;8.650;2022-10-16T00:01:34;4.73;;;1.40;;
11084;SDS011;5596;46.826;8.650;2022-10-16T00:04:01;1.73;;;1.30;;
11084;SDS011;5596;46.826;8.650;2022-10-16T00:06:29;3.20;;;1.60;;
11084;SDS011;5596;46.826;8.650;2022-10-16T00:08:57;1.50;;;1.40;;
11084;SDS011;5596;46.826;8.650;2022-10-16T00:11:25;3.00;;;1.33;;
11084;SDS011;5596;46.826;8.650;2022-10-16T00:13:55;1.83;;;1.47;;
11084;SDS011;5596;46.826;8.650;2022-10-16T00:16:23;5.57;;;1.30;;
11084;SDS011;5596;46.826;8.650;2022-10-16T00:18:52;1.97;;;1.30;;
11084;SDS011;5596;46.826;8.650;2022-10-16T00:21:22;2.57;;;1.40;;
11084;SDS011;5596;46.826;8.650;2022-10-16T00:23:51;1.27;;;1.17;;
11084;SDS011;5596;46.826;8.650;2022-10-16T00:26:18;0.97;;;0.97;;
11084;SDS011;5596;46.826;8.650;2022-10-16T00:28:46;3.43;;;1.40;;
11084;SDS011;5596;46.826;8.650;2022-10-16T00:31:13;5.60;;;1.33;;
11084;SDS011;5596;46.826;8.650;2022-10-16T00:33:41;1.47;;;1.20;;
11084;SDS011;5596;46.826;8.650;2022-10-16T00:36:11;3.97;;;1.60;;
11084;SDS011;5596;46.826;8.650;2022-10-16T00:38:39;6.20;;;1.30;;
11084;SDS011;5596;46.826;8.650;2022-10-16T00:41:07;5.93;;;1.40;;
11084;SDS011;5596;46.826;8.650;2022-10-16T00:43:39;2.30;;;1.60;;
11084;SDS011;5596;46.826;8.650;2022-10-16T00:46:13;5.83;;;1.50;;
11084;SDS011;5596;46.826;8.650;2022-10-16T00:48:45;4.27;;;1.40;;
11084;SDS011;5596;46.826;8.650;2022-10-16T00:51:16;1.93;;;1.40;;
11084;SDS011;5596;46.826;8.650;2022-10-16T00:53:47;2.20;;;1.37;;
11084;SDS011;5596;46.826;8.650;2022-10-16T00:56:15;5.23;;;1.87;;
11084;SDS011;5596;46.826;8.650;2022-10-16T00:58:43;4.00;;;1.30;;
11084;SDS011;5596;46.826;8.650;2022-10-16T01:01:10;12.63;;;1.47;;
11084;SDS011;5596;46.826;8.650;2022-10-16T01:03:38;5.20;;;1.40;;
11084;SDS011;5596;46.826;8.650;2022-10-16T01:06:08;4.00;;;1.37;;
11084;SDS011;5596;46.826;8.650;2022-10-16T01:08:47;3.53;;;1.40;;
11084;SDS011;5596;46.826;8.650;2022-10-16T01:11:25;7.00;;;1.60;;
11084;SDS011;5596;46.826;8.650;2022-10-16T01:14:00;3.77;;;1.40;;
11084;SDS011;5596;46.826;8.650;2022-10-16T01:16:34;4.53;;;1.60;;
11084;SDS011;5596;46.826;8.650;2022-10-16T01:19:07;2.00;;;1.60;;
11084;SDS011;5596;46.826;8.650;2022-10-16T01:21:39;3.90;;;1.50;;
11084;SDS011;5596;46.826;8.650;2022-10-16T01:24:15;4.63;;;1.60;;
11084;SDS011;5596;46.826;8.650;2022-10-16T01:27:07;8.87;;;1.60;;
11084;SDS011;5596;46.826;8.650;2022-10-16T01:29:37;3.87;;;1.40;;
11084;SDS011;5596;46.826;8.650;2022-10-16T01:32:20;3.90;;;1.37;;
11084;SDS011;5596;46.826;8.650;2022-10-16T01:34:52;4.20;;;1.50;;
11084;SDS011;5596;46.826;8.650;2022-10-16T01:37:27;2.00;;;1.40;;
11084;SDS011;5596;46.826;8.650;2022-10-16T01:40:00;1.90;;;1.30;;
11084;SDS011;5596;46.826;8.650;2022-10-16T01:42:33;6.97;;;1.30;;
11084;SDS011;5596;46.826;8.650;2022-10-16T01:45:04;5.07;;;2.47;;
11084;SDS011;5596;46.826;8.650;2022-10-16T01:47:34;6.30;;;1.60;;
11084;SDS011;5596;46.826;8.650;2022-10-16T01:50:03;3.57;;;1.30;;
11084;SDS011;5596;46.826;8.650;2022-10-16T01:52:35;5.67;;;1.53;;
11084;SDS011;5596;46.826;8.650;2022-10-16T01:55:05;6.93;;;1.70;;
11084;SDS011;5596;46.826;8.650;2022-10-16T01:57:37;5.90;;;1.83;;
11084;SDS011;5596;46.826;8.650;2022-10-16T02:00:10;5.93;;;1.60;;
11084;SDS011;5596;46.826;8.650;2022-10-16T02:02:40;6.37;;;1.57;;
11084;SDS011;5596;46.826;8.650;2022-10-16T02:05:12;3.97;;;1.37;;
11084;SDS011;5596;46.826;8.650;2022-10-16T02:07:45;5.17;;;1.30;;
11084;SDS011;5596;46.826;8.650;2022-10-16T02:10:12;6.73;;;1.40;;
11084;SDS011;5596;46.826;8.650;2022-10-16T02:12:41;4.17;;;2.00;;
11084;SDS011;5596;46.826;8.650;2022-10-16T02:15:13;6.23;;;1.90;;
11084;SDS011;5596;46.826;8.650;2022-10-16T02:17:40;4.50;;;1.47;;
11084;SDS011;5596;46.826;8.650;2022-10-16T02:20:07;9.53;;;1.90;;
11084;SDS011;5596;46.826;8.650;2022-10-16T02:22:35;6.13;;;1.90;;
11084;SDS011;5596;46.826;8.650;2022-10-16T02:25:06;8.03;;;2.80;;
11084;SDS011;5596;46.826;8.650;2022-10-16T02:27:38;8.03;;;1.50;;
11084;SDS011;5596;46.826;8.650;2022-10-16T02:30:13;6.17;;;2.23;;
11084;SDS011;5596;46.826;8.650;2022-10-16T02:32:47;8.87;;;1.70;;
11084;SDS011;5596;46.826;8.650;2022-10-16T02:35:16;4.87;;;1.57;;
11084;SDS011;5596;46.826;8.650;2022-10-16T02:37:46;4.10;;;1.50;;
11084;SDS011;5596;46.826;8.650;2022-10-16T02:40:14;7.97;;;1.57;;
11084;SDS011;5596;46.826;8.650;2022-10-16T02:42:43;3.70;;;1.60;;
11084;SDS011;5596;46.826;8.650;2022-10-16T02:45:10;7.60;;;1.53;;
11084;SDS011;5596;46.826;8.650;2022-10-16T02:47:38;3.47;;;1.87;;
11084;SDS011;5596;46.826;8.650;2022-10-16T02:50:05;2.27;;;1.80;;
11084;SDS011;5596;46.826;8.650;2022-10-16T02:52:33;6.73;;;1.83;;
11084;SDS011;5596;46.826;8.650;2022-10-16T02:55:00;3.20;;;1.67;;
11084;SDS011;5596;46.826;8.650;2022-10-16T02:57:27;4.23;;;1.93;;
11084;SDS011;5596;46.826;8.650;2022-10-16T02:59:56;7.03;;;2.13;;
11084;SDS011;5596;46.826;8.650;2022-10-16T03:02:23;5.07;;;1.90;;
11084;SDS011;5596;46.826;8.650;2022-10-16T03:04:51;2.53;;;1.70;;
11084;SDS011;5596;46.826;8.650;2022-10-16T03:07:18;5.50;;;1.70;;
11084;SDS011;5596;46.826;8.650;2022-10-16T03:09:45;4.43;;;2.37;;
11084;SDS011;5596;46.826;8.650;2022-10-16T03:12:12;5.53;;;2.00;;
11084;SDS011;5596;46.826;8.650;2022-10-16T03:14:39;7.10;;;2.70;;
11084;SDS011;5596;46.826;8.650;2022-10-16T03:17:08;4.03;;;1.60;;
11084;SDS011;5596;46.826;8.650;2022-10-16T03:19:35;3.17;;;1.60;;
11084;SDS011;5596;46.826;8.650;2022-10-16T03:22:03;4.67;;;1.93;;
11084;SDS011;5596;46.826;8.650;2022-10-16T03:24:31;4.67;;;1.87;;
11084;SDS011;5596;46.826;8.650;2022-10-16T03:26:58;4.03;;;1.90;;
11084;SDS011;5596;46.826;8.650;2022-10-16T03:29:26;7.03;;;1.80;;
11084;SDS011;5596;46.826;8.650;2022-10-16T03:31:54;8.90;;;1.67;;
11084;SDS011;5596;46.826;8.650;2022-10-16T03:34:23;3.43;;;1.70;;
11084;SDS011;5596;46.826;8.650;2022-10-16T03:36:50;5.47;;;1.90;;
11084;SDS011;5596;46.826;8.650;2022-10-16T03:39:18;5.03;;;2.73;;
11084;SDS011;5596;46.826;8.650;2022-10-16T03:41:45;3.17;;;2.00;;
11084;SDS011;5596;46.826;8.650;2022-10-16T03:44:13;3.43;;;1.80;;
11084;SDS011;5596;46.826;8.650;2022-10-16T03:46:40;2.17;;;1.80;;
11084;SDS011;5596;46.826;8.650;2022-10-16T03:49:07;2.90;;;2.00;;
11084;SDS011;5596;46.826;8.650;2022-10-16T03:51:35;3.10;;;1.70;;
11084;SDS011;5596;46.826;8.650;2022-10-16T03:54:02;5.07;;;1.87;;
11084;SDS011;5596;46.826;8.650;2022-10-16T03:56:30;4.63;;;1.80;;
11084;SDS011;5596;46.826;8.650;2022-10-16T03:58:57;13.67;;;2.13;;
11084;SDS011;5596;46.826;8.650;2022-10-16T04:01:24;5.63;;;1.73;;
11084;SDS011;5596;46.826;8.650;2022-10-16T04:03:51;3.67;;;1.77;;
11084;SDS011;5596;46.826;8.650;2022-10-16T04:06:18;4.67;;;1.70;;
11084;SDS011;5596;46.826;8.650;2022-10-16T04:08:46;3.20;;;2.60;;
11084;SDS011;5596;46.826;8.650;2022-10-16T04:11:14;5.63;;;1.70;;
11084;SDS011;5596;46.826;8.650;2022-10-16T04:13:42;3.77;;;1.90;;
11084;SDS011;5596;46.826;8.650;2022-10-16T04:16:09;4.20;;;2.10;;
11084;SDS011;5596;46.826;8.650;2022-10-16T04:18:36;4.97;;;2.13;;
11084;SDS011;5596;46.826;8.650;2022-10-16T04:21:03;8.93;;;2.10;;
11084;SDS011;5596;46.826;8.650;2022-10-16T04:23:31;3.80;;;2.10;;
11084;SDS011;5596;46.826;8.650;2022-10-16T04:26:00;4.80;;;1.60;;
11084;SDS011;5596;46.826;8.650;2022-10-16T04:28:27;4.33;;;1.73;;
11084;SDS011;5596;46.826;8.650;2022-10-16T04:30:55;5.67;;;2.60;;
11084;SDS011;5596;46.826;8.650;2022-10-16T04:33:23;4.13;;;2.10;;
11084;SDS011;5596;46.826;8.650;2022-10-16T04:35:55;2.77;;;2.00;;
11084;SDS011;5596;46.826;8.650;2022-10-16T04:38:23;7.00;;;1.97;;
11084;SDS011;5596;46.826;8.650;2022-10-16T04:40:50;4.33;;;1.83;;
11084;SDS011;5596;46.826;8.650;2022-10-16T04:43:19;3.57;;;1.77;;
11084;SDS011;5596;46.826;8.650;2022-10-16T04:45:46;3.80;;;1.70;;
11084;SDS011;5596;46.826;8.650;2022-10-16T04:48:13;4.47;;;2.20;;
11084;SDS011;5596;46.826;8.650;2022-10-16T04:50:40;4.50;;;2.17;;
11084;SDS011;5596;46.826;8.650;2022-10-16T04:53:08;5.43;;;2.40;;
11084;SDS011;5596;46.826;8.650;2022-10-16T04:55:35;4.90;;;2.20;;
11084;SDS011;5596;46.826;8.650;2022-10-16T04:58:02;3.27;;;2.00;;
11084;SDS011;5596;46.826;8.650;2022-10-16T05:00:31;4.60;;;2.37;;
11084;SDS011;5596;46.826;8.650;2022-10-16T05:02:58;9.67;;;3.13;;
11084;SDS011;5596;46.826;8.650;2022-10-16T05:05:26;6.47;;;3.10;;
11084;SDS011;5596;46.826;8.650;2022-10-16T05:07:53;6.50;;;2.63;;
11084;SDS011;5596;46.826;8.650;2022-10-16T05:10:20;6.20;;;2.13;;
11084;SDS011;5596;46.826;8.650;2022-10-16T05:12:47;6.40;;;2.47;;
11084;SDS011;5596;46.826;8.650;2022-10-16T05:15:15;4.73;;;2.60;;
11084;SDS011;5596;46.826;8.650;2022-10-16T05:17:44;8.73;;;5.83;;
11084;SDS011;5596;46.826;8.650;2022-10-16T05:20:11;8.07;;;4.77;;
11084;SDS011;5596;46.826;8.650;2022-10-16T05:22:39;3.60;;;2.63;;
11084;SDS011;5596;46.826;8.650;2022-10-16T05:25:06;4.40;;;2.53;;
11084;SDS011;5596;46.826;8.650;2022-10-16T05:27:33;5.50;;;2.37;;
11084;SDS011;5596;46.826;8.650;2022-10-16T05:30:03;6.90;;;2.67;;
11084;SDS011;5596;46.826;8.650;2022-10-16T05:32:30;6.67;;;3.87;;
11084;SDS011;5596;46.826;8.650;2022-10-16T05:34:59;4.97;;;2.60;;
11084;SDS011;5596;46.826;8.650;2022-10-16T05:37:26;3.07;;;2.47;;
11084;SDS011;5596;46.826;8.650;2022-10-16T05:39:54;3.43;;;2.17;;
11084;SDS011;5596;46.826;8.650;2022-10-16T05:42:21;3.57;;;2.23;;
11084;SDS011;5596;46.826;8.650;2022-10-16T05:44:48;4.37;;;2.60;;
11084;SDS011;5596;46.826;8.650;2022-10-16T05:47:15;6.13;;;2.57;;
11084;SDS011;5596;46.826;8.650;2022-10-16T05:49:42;4.30;;;2.10;;
11084;SDS011;5596;46.826;8.650;2022-10-16T05:52:10;5.67;;;2.50;;
11084;SDS011;5596;46.826;8.650;2022-10-16T05:54:37;3.13;;;2.10;;
11084;SDS011;5596;46.826;8.650;2022-10-16T05:57:04;3.60;;;2.17;;
11084;SDS011;5596;46.826;8.650;2022-10-16T05:59:34;4.40;;;2.30;;
11084;SDS011;5596;46.826;8.650;2022-10-16T06:02:02;9.27;;;2.23;;
11084;SDS011;5596;46.826;8.650;2022-10-16T06:04:29;7.53;;;2.30;;
11084;SDS011;5596;46.826;8.650;2022-10-16T06:06:58;3.80;;;2.20;;
11084;SDS011;5596;46.826;8.650;2022-10-16T06:09:29;4.83;;;2.33;;
11084;SDS011;5596;46.826;8.650;2022-10-16T06:11:56;4.60;;;2.00;;
11084;SDS011;5596;46.826;8.650;2022-10-16T06:14:23;4.43;;;2.10;;
11084;SDS011;5596;46.826;8.650;2022-10-16T06:16:50;5.07;;;2.10;;
11084;SDS011;5596;46.826;8.650;2022-10-16T06:19:18;5.43;;;2.10;;
11084;SDS011;5596;46.826;8.650;2022-10-16T06:21:45;4.03;;;2.20;;
11084;SDS011;5596;46.826;8.650;2022-10-16T06:24:12;6.97;;;2.20;;
11084;SDS011;5596;46.826;8.650;2022-10-16T06:26:40;6.17;;;2.47;;
11084;SDS011;5596;46.826;8.650;2022-10-16T06:29:08;2.87;;;2.37;;
11084;SDS011;5596;46.826;8.650;2022-10-16T06:31:35;2.23;;;1.87;;
11084;SDS011;5596;46.826;8.650;2022-10-16T06:34:02;2.83;;;1.80;;
11084;SDS011;5596;46.826;8.650;2022-10-16T06:36:30;3.47;;;2.13;;
11084;SDS011;5596;46.826;8.650;2022-10-16T06:38:58;3.70;;;2.20;;
11084;SDS011;5596;46.826;8.650;2022-10-16T06:41:25;4.90;;;1.87;;
11084;SDS011;5596;46.826;8.650;2022-10-16T06:43:53;6.23;;;2.03;;
11084;SDS011;5596;46.826;8.650;2022-10-16T06:46:21;6.23;;;2.50;;
11084;SDS011;5596;46.826;8.650;2022-10-16T06:48:50;4.57;;;2.43;;
11084;SDS011;5596;46.826;8.650;2022-10-16T06:51:18;2.97;;;2.30;;
11084;SDS011;5596;46.826;8.650;2022-10-16T06:53:46;3.93;;;2.23;;
11084;SDS011;5596;46.826;8.650;2022-10-16T06:56:15;4.40;;;2.20;;
11084;SDS011;5596;46.826;8.650;2022-10-16T06:58:44;3.77;;;1.87;;
11084;SDS011;5596;46.826;8.650;2022-10-16T07:01:16;2.37;;;1.87;;
11084;SDS011;5596;46.826;8.650;2022-10-16T07:03:45;3.93;;;2.20;;
11084;SDS011;5596;46.826;8.650;2022-10-16T07:06:13;4.10;;;2.20;;
11084;SDS011;5596;46.826;8.650;2022-10-16T07:08:42;3.23;;;1.97;;
11084;SDS011;5596;46.826;8.650;2022-10-16T07:11:13;2.63;;;2.00;;
11084;SDS011;5596;46.826;8.650;2022-10-16T07:13:41;3.73;;;1.70;;
11084;SDS011;5596;46.826;8.650;2022-10-16T07:16:10;3.27;;;1.80;;
11084;SDS011;5596;46.826;8.650;2022-10-16T07:18:40;1.83;;;1.70;;
11084;SDS011;5596;46.826;8.650;2022-10-16T07:21:11;4.37;;;1.50;;
11084;SDS011;5596;46.826;8.650;2022-10-16T07:23:40;2.43;;;1.77;;
11084;SDS011;5596;46.826;8.650;2022-10-16T07:26:07;5.27;;;2.10;;
11084;SDS011;5596;46.826;8.650;2022-10-16T07:28:36;4.20;;;1.83;;
11084;SDS011;5596;46.826;8.650;2022-10-16T07:31:05;3.47;;;1.73;;
11084;SDS011;5596;46.826;8.650;2022-10-16T07:33:34;2.30;;;2.10;;
11084;SDS011;5596;46.826;8.650;2022-10-16T07:36:03;5.73;;;1.83;;
11084;SDS011;5596;46.826;8.650;2022-10-16T07:38:30;7.60;;;1.70;;
11084;SDS011;5596;46.826;8.650;2022-10-16T07:40:58;6.87;;;1.80;;
11084;SDS011;5596;46.826;8.650;2022-10-16T07:43:26;3.27;;;1.77;;
11084;SDS011;5596;46.826;8.650;2022-10-16T07:45:53;2.27;;;2.07;;
11084;SDS011;5596;46.826;8.650;2022-10-16T07:48:21;4.47;;;2.20;;
11084;SDS011;5596;46.826;8.650;2022-10-16T07:50:49;3.97;;;2.13;;
11084;SDS011;5596;46.826;8.650;2022-10-16T07:53:18;3.70;;;2.37;;
11084;SDS011;5596;46.826;8.650;2022-10-16T07:55:45;2.63;;;2.43;;
11084;SDS011;5596;46.826;8.650;2022-10-16T07:58:12;3.77;;;2.10;;
11084;SDS011;5596;46.826;8.650;2022-10-16T08:00:39;2.67;;;2.00;;
11084;SDS011;5596;46.826;8.650;2022-10-16T08:03:07;4.83;;;2.97;;
11084;SDS011;5596;46.826;8.650;2022-10-16T08:05:35;6.73;;;2.20;;
11084;SDS011;5596;46.826;8.650;2022-10-16T08:08:02;4.33;;;2.13;;
11084;SDS011;5596;46.826;8.650;2022-10-16T08:10:30;3.53;;;2.37;;
11084;SDS011;5596;46.826;8.650;2022-10-16T08:12:58;5.20;;;2.17;;
11084;SDS011;5596;46.826;8.650;2022-10-16T08:15:25;4.07;;;2.20;;
11084;SDS011;5596;46.826;8.650;2022-10-16T08:17:56;7.10;;;2.53;;
11084;SDS011;5596;46.826;8.650;2022-10-16T08:20:24;6.23;;;2.00;;
11084;SDS011;5596;46.826;8.650;2022-10-16T08:22:52;4.43;;;2.50;;
11084;SDS011;5596;46.826;8.650;2022-10-16T08:25:19;2.80;;;1.90;;
11084;SDS011;5596;46.826;8.650;2022-10-16T08:27:48;5.10;;;2.67;;
11084;SDS011;5596;46.826;8.650;2022-10-16T08:30:16;2.57;;;2.30;;
11084;SDS011;5596;46.826;8.650;2022-10-16T08:32:43;5.20;;;2.53;;
11084;SDS011;5596;46.826;8.650;2022-10-16T08:35:11;4.50;;;3.00;;
11084;SDS011;5596;46.826;8.650;2022-10-16T08:37:39;4.97;;;3.00;;
11084;SDS011;5596;46.826;8.650;2022-10-16T08:40:07;2.20;;;2.00;;
11084;SDS011;5596;46.826;8.650;2022-10-16T08:42:47;5.53;;;2.17;;
11084;SDS011;5596;46.826;8.650;2022-10-16T08:45:35;5.23;;;2.30;;
11084;SDS011;5596;46.826;8.650;2022-10-16T08:48:14;4.60;;;2.33;;
11084;SDS011;5596;46.826;8.650;2022-10-16T08:50:48;7.23;;;2.40;;
11084;SDS011;5596;46.826;8.650;2022-10-16T08:53:18;9.23;;;2.73;;
11084;SDS011;5596;46.826;8.650;2022-10-16T08:55:51;7.90;;;2.90;;
11084;SDS011;5596;46.826;8.650;2022-10-16T08:58:21;3.67;;;2.30;;
11084;SDS011;5596;46.826;8.650;2022-10-16T09:00:53;4.57;;;2.30;;
11084;SDS011;5596;46.826;8.650;2022-10-16T09:03:23;5.63;;;2.40;;
11084;SDS011;5596;46.826;8.650;2022-10-16T09:06:04;11.03;;;2.80;;
11084;SDS011;5596;46.826;8.650;2022-10-16T09:08:42;3.07;;;2.00;;
11084;SDS011;5596;46.826;8.650;2022-10-16T09:11:22;5.30;;;1.97;;
11084;SDS011;5596;46.826;8.650;2022-10-16T09:14:06;5.33;;;2.03;;
11084;SDS011;5596;46.826;8.650;2022-10-16T09:16:48;4.87;;;2.30;;
11084;SDS011;5596;46.826;8.650;2022-10-16T09:19:24;2.33;;;1.97;;
11084;SDS011;5596;46.826;8.650;2022-10-16T09:21:58;4.33;;;1.60;;
11084;SDS011;5596;46.826;8.650;2022-10-16T09:24:29;8.70;;;3.00;;
11084;SDS011;5596;46.826;8.650;2022-10-16T09:26:57;3.33;;;2.20;;
11084;SDS011;5596;46.826;8.650;2022-10-16T09:29:25;3.23;;;1.87;;
11084;SDS011;5596;46.826;8.650;2022-10-16T09:31:52;2.67;;;1.97;;
11084;SDS011;5596;46.826;8.650;2022-10-16T09:34:23;3.67;;;2.00;;
11084;SDS011;5596;46.826;8.650;2022-10-16T09:36:56;3.53;;;1.80;;
11084;SDS011;5596;46.826;8.650;2022-10-16T09:39:25;4.80;;;2.20;;
11084;SDS011;5596;46.826;8.650;2022-10-16T09:41:52;2.20;;;1.90;;
11084;SDS011;5596;46.826;8.650;2022-10-16T09:44:21;4.13;;;2.13;;
11084;SDS011;5596;46.826;8.650;2022-10-16T09:47:02;2.77;;;2.17;;
11084;SDS011;5596;46.826;8.650;2022-10-16T09:49:30;3.97;;;2.07;;
11084;SDS011;5596;46.826;8.650;2022-10-16T09:52:04;2.40;;;1.80;;
11084;SDS011;5596;46.826;8.650;2022-10-16T09:54:32;3.70;;;1.90;;
11084;SDS011;5596;46.826;8.650;2022-10-16T09:57:06;2.57;;;1.90;;
11084;SDS011;5596;46.826;8.650;2022-10-16T09:59:45;3.03;;;2.08;;
11084;SDS011;5596;46.826;8.650;2022-10-16T10:02:14;3.43;;;2.10;;
11084;SDS011;5596;46.826;8.650;2022-10-16T10:04:45;3.85;;;2.15;;
11084;SDS011;5596;46.826;8.650;2022-10-16T10:07:17;4.18;;;2.53;;
11084;SDS011;5596;46.826;8.650;2022-10-16T10:09:47;3.70;;;1.90;;
11084;SDS011;5596;46.826;8.650;2022-10-16T10:12:16;3.67;;;2.22;;
11084;SDS011;5596;46.826;8.650;2022-10-16T10:14:46;3.50;;;1.98;;
11084;SDS011;5596;46.826;8.650;2022-10-16T10:17:17;3.47;;;1.73;;
11084;SDS011;5596;46.826;8.650;2022-10-16T10:19:47;2.75;;;1.95;;
11084;SDS011;5596;46.826;8.650;2022-10-16T10:22:17;2.65;;;1.90;;
11084;SDS011;5596;46.826;8.650;2022-10-16T10:25:00;4.32;;;2.05;;
11084;SDS011;5596;46.826;8.650;2022-10-16T10:27:44;2.17;;;1.80;;
11084;SDS011;5596;46.826;8.650;2022-10-16T10:30:24;3.53;;;1.90;;
11084;SDS011;5596;46.826;8.650;2022-10-16T10:33:01;3.17;;;1.77;;
11084;SDS011;5596;46.826;8.650;2022-10-16T10:35:44;2.45;;;1.48;;
11084;SDS011;5596;46.826;8.650;2022-10-16T10:38:20;2.05;;;1.85;;
11084;SDS011;5596;46.826;8.650;2022-10-16T10:40:58;3.72;;;1.80;;
11084;SDS011;5596;46.826;8.650;2022-10-16T10:43:42;3.85;;;1.67;;
11084;SDS011;5596;46.826;8.650;2022-10-16T10:46:20;3.08;;;1.70;;
11084;SDS011;5596;46.826;8.650;2022-10-16T10:49:01;4.78;;;2.08;;
11084;SDS011;5596;46.826;8.650;2022-10-16T10:51:38;2.80;;;1.80;;
11084;SDS011;5596;46.826;8.650;2022-10-16T10:54:15;2.42;;;1.88;;
11084;SDS011;5596;46.826;8.650;2022-10-16T10:56:51;3.03;;;1.70;;
11084;SDS011;5596;46.826;8.650;2022-10-16T11:02:16;6.03;;;2.15;;
11084;SDS011;5596;46.826;8.650;2022-10-16T11:04:57;2.20;;;1.98;;
11084;SDS011;5596;46.826;8.650;2022-10-16T11:07:48;3.20;;;1.58;;
11084;SDS011;5596;46.826;8.650;2022-10-16T11:10:20;2.58;;;1.77;;
11084;SDS011;5596;46.826;8.650;2022-10-16T11:12:52;2.88;;;1.48;;
11084;SDS011;5596;46.826;8.650;2022-10-16T11:15:25;1.80;;;1.58;;
11084;SDS011;5596;46.826;8.650;2022-10-16T11:17:58;2.03;;;1.75;;
11084;SDS011;5596;46.826;8.650;2022-10-16T11:20:34;2.00;;;1.50;;
11084;SDS011;5596;46.826;8.650;2022-10-16T11:23:08;1.90;;;1.70;;
11084;SDS011;5596;46.826;8.650;2022-10-16T11:25:42;1.95;;;1.80;;
11084;SDS011;5596;46.826;8.650;2022-10-16T11:28:11;2.95;;;1.80;;
11084;SDS011;5596;46.826;8.650;2022-10-16T11:30:41;2.35;;;1.80;;
11084;SDS011;5596;46.826;8.650;2022-10-16T11:33:22;2.35;;;1.75;;
11084;SDS011;5596;46.826;8.650;2022-10-16T11:36:00;2.88;;;1.80;;
11084;SDS011;5596;46.826;8.650;2022-10-16T11:38:39;5.00;;;1.70;;
11084;SDS011;5596;46.826;8.650;2022-10-16T11:41:13;3.65;;;1.80;;
11084;SDS011;5596;46.826;8.650;2022-10-16T11:43:48;3.25;;;1.73;;
11084;SDS011;5596;46.826;8.650;2022-10-16T11:46:20;5.10;;;1.73;;
11084;SDS011;5596;46.826;8.650;2022-10-16T11:48:54;3.80;;;1.60;;
11084;SDS011;5596;46.826;8.650;2022-10-16T11:51:31;3.78;;;1.67;;
11084;SDS011;5596;46.826;8.650;2022-10-16T11:54:04;4.50;;;2.00;;
11084;SDS011;5596;46.826;8.650;2022-10-16T11:56:40;4.70;;;1.75;;
11084;SDS011;5596;46.826;8.650;2022-10-16T11:59:12;1.65;;;1.50;;
11084;SDS011;5596;46.826;8.650;2022-10-16T12:01:46;5.43;;;1.98;;
11084;SDS011;5596;46.826;8.650;2022-10-16T12:04:20;3.65;;;1.90;;
11084;SDS011;5596;46.826;8.650;2022-10-16T12:06:55;4.53;;;2.00;;
11084;SDS011;5596;46.826;8.650;2022-10-16T12:09:27;4.32;;;1.70;;
11084;SDS011;5596;46.826;8.650;2022-10-16T12:11:56;4.88;;;1.80;;
11084;SDS011;5596;46.826;8.650;2022-10-16T12:14:34;2.42;;;1.80;;
11084;SDS011;5596;46.826;8.650;2022-10-16T12:17:04;2.78;;;1.60;;
11084;SDS011;5596;46.826;8.650;2022-10-16T12:19:57;1.80;;;1.70;;
11084;SDS011;5596;46.826;8.650;2022-10-16T12:22:28;2.05;;;1.70;;
11084;SDS011;5596;46.826;8.650;2022-10-16T12:24:57;1.70;;;1.60;;
11084;SDS011;5596;46.826;8.650;2022-10-16T12:27:27;3.03;;;1.63;;
11084;SDS011;5596;46.826;8.650;2022-10-16T12:29:57;3.25;;;1.70;;
11084;SDS011;5596;46.826;8.650;2022-10-16T12:32:27;4.15;;;1.50;;
11084;SDS011;5596;46.826;8.650;2022-10-16T12:34:58;3.67;;;1.63;;
11084;SDS011;5596;46.826;8.650;2022-10-16T12:37:29;4.00;;;2.00;;
11084;SDS011;5596;46.826;8.650;2022-10-16T12:39:59;2.78;;;1.80;;
11084;SDS011;5596;46.826;8.650;2022-10-16T12:42:39;1.73;;;1.60;;
11084;SDS011;5596;46.826;8.650;2022-10-16T12:45:21;2.67;;;1.45;;
11084;SDS011;5596;46.826;8.650;2022-10-16T12:47:52;2.75;;;1.63;;
11084;SDS011;5596;46.826;8.650;2022-10-16T12:50:26;1.88;;;1.60;;
11084;SDS011;5596;46.826;8.650;2022-10-16T12:52:58;1.95;;;1.67;;
11084;SDS011;5596;46.826;8.650;2022-10-16T12:55:27;1.98;;;1.75;;
11084;SDS011;5596;46.826;8.650;2022-10-16T12:58:05;6.80;;;1.90;;
11084;SDS011;5596;46.826;8.650;2022-10-16T13:00:50;2.97;;;1.80;;
11084;SDS011;5596;46.826;8.650;2022-10-16T13:03:29;1.73;;;1.52;;
11084;SDS011;5596;46.826;8.650;2022-10-16T13:06:17;2.10;;;1.90;;
11084;SDS011;5596;46.826;8.650;2022-10-16T13:09:02;4.68;;;1.40;;
11084;SDS011;5596;46.826;8.650;2022-10-16T13:11:58;2.03;;;1.70;;
11084;SDS011;5596;46.826;8.650;2022-10-16T13:17:48;2.53;;;1.70;;
11084;SDS011;5596;46.826;8.650;2022-10-16T13:20:26;4.10;;;1.75;;
11084;SDS011;5596;46.826;8.650;2022-10-16T13:23:03;2.72;;;1.60;;
11084;SDS011;5596;46.826;8.650;2022-10-16T13:25:51;2.85;;;1.65;;
11084;SDS011;5596;46.826;8.650;2022-10-16T13:28:32;3.35;;;1.60;;
11084;SDS011;5596;46.826;8.650;2022-10-16T13:31:01;3.22;;;1.50;;
11084;SDS011;5596;46.826;8.650;2022-10-16T13:33:30;1.80;;;1.70;;
11084;SDS011;5596;46.826;8.650;2022-10-16T13:36:00;1.60;;;1.50;;
11084;SDS011;5596;46.826;8.650;2022-10-16T13:38:28;4.65;;;1.55;;
11084;SDS011;5596;46.826;8.650;2022-10-16T13:40:59;2.78;;;1.70;;
11084;SDS011;5596;46.826;8.650;2022-10-16T13:43:29;1.95;;;1.58;;
11084;SDS011;5596;46.826;8.650;2022-10-16T13:46:01;4.03;;;1.85;;
11084;SDS011;5596;46.826;8.650;2022-10-16T13:48:33;3.10;;;1.63;;
11084;SDS011;5596;46.826;8.650;2022-10-16T13:51:01;2.03;;;1.70;;
11084;SDS011;5596;46.826;8.650;2022-10-16T13:53:33;2.90;;;1.60;;
11084;SDS011;5596;46.826;8.650;2022-10-16T13:56:03;3.03;;;2.00;;
11084;SDS011;5596;46.826;8.650;2022-10-16T13:58:36;2.67;;;1.73;;
11084;SDS011;5596;46.826;8.650;2022-10-16T14:01:04;3.15;;;1.80;;
11084;SDS011;5596;46.826;8.650;2022-10-16T14:03:40;2.58;;;2.22;;
11084;SDS011;5596;46.826;8.650;2022-10-16T14:06:11;2.95;;;1.88;;
11084;SDS011;5596;46.826;8.650;2022-10-16T14:08:43;4.65;;;2.10;;
11084;SDS011;5596;46.826;8.650;2022-10-16T14:11:21;3.03;;;2.00;;
11084;SDS011;5596;46.826;8.650;2022-10-16T14:13:50;2.20;;;1.95;;
11084;SDS011;5596;46.826;8.650;2022-10-16T14:16:18;3.35;;;1.98;;
11084;SDS011;5596;46.826;8.650;2022-10-16T14:18:50;2.85;;;2.00;;
11084;SDS011;5596;46.826;8.650;2022-10-16T14:21:22;4.25;;;2.22;;
11084;SDS011;5596;46.826;8.650;2022-10-16T14:23:50;1.77;;;1.58;;
11084;SDS011;5596;46.826;8.650;2022-10-16T14:26:18;3.78;;;2.10;;
11084;SDS011;5596;46.826;8.650;2022-10-16T14:28:48;3.75;;;2.10;;
11084;SDS011;5596;46.826;8.650;2022-10-16T14:31:28;3.40;;;1.77;;
11084;SDS011;5596;46.826;8.650;2022-10-16T14:33:56;3.35;;;1.77;;
11084;SDS011;5596;46.826;8.650;2022-10-16T14:36:25;3.85;;;1.77;;
11084;SDS011;5596;46.826;8.650;2022-10-16T14:38:56;2.20;;;1.80;;
11084;SDS011;5596;46.826;8.650;2022-10-16T14:41:27;2.63;;;1.98;;
11084;SDS011;5596;46.826;8.650;2022-10-16T14:43:57;3.50;;;2.40;;
11084;SDS011;5596;46.826;8.650;2022-10-16T14:46:30;5.53;;;2.60;;
11084;SDS011;5596;46.826;8.650;2022-10-16T14:49:02;2.65;;;2.30;;
11084;SDS011;5596;46.826;8.650;2022-10-16T14:51:40;6.55;;;3.10;;
11084;SDS011;5596;46.826;8.650;2022-10-16T14:54:10;4.47;;;2.67;;
11084;SDS011;5596;46.826;8.650;2022-10-16T14:56:42;3.40;;;2.80;;
11084;SDS011;5596;46.826;8.650;2022-10-16T14:59:14;4.20;;;2.40;;
11084;SDS011;5596;46.826;8.650;2022-10-16T15:01:45;4.30;;;3.90;;
11084;SDS011;5596;46.826;8.650;2022-10-16T15:04:13;7.25;;;4.25;;
11084;SDS011;5596;46.826;8.650;2022-10-16T15:06:41;9.65;;;5.85;;
11084;SDS011;5596;46.826;8.650;2022-10-16T15:09:08;7.30;;;4.57;;
11084;SDS011;5596;46.826;8.650;2022-10-16T15:11:35;5.13;;;4.63;;
11084;SDS011;5596;46.826;8.650;2022-10-16T15:14:02;5.90;;;5.00;;
11084;SDS011;5596;46.826;8.650;2022-10-16T15:16:31;3.40;;;3.10;;
11084;SDS011;5596;46.826;8.650;2022-10-16T15:18:58;4.10;;;2.67;;
11084;SDS011;5596;46.826;8.650;2022-10-16T15:21:26;7.53;;;4.23;;
11084;SDS011;5596;46.826;8.650;2022-10-16T15:23:55;10.93;;;7.97;;
11084;SDS011;5596;46.826;8.650;2022-10-16T15:26:23;6.73;;;5.93;;
11084;SDS011;5596;46.826;8.650;2022-10-16T15:28:50;16.30;;;9.23;;